createdAt,value
2024-02-27T00:00:49.504Z,100135.59
2024-02-27T00:03:52.024Z,100140.19
2024-02-27T00:06:56.283Z,100142.03
2024-02-27T00:10:13.182Z,100141.41
2024-02-27T00:13:18.183Z,100140.91
2024-02-27T00:16:23.154Z,100134.22
2024-02-27T00:19:29.539Z,100136.91
2024-02-27T00:22:33.498Z,100133.03
2024-02-27T00:25:40.458Z,100133.19
2024-02-27T00:28:50.958Z,100128.22
2024-02-27T00:31:55.364Z,100129.44
2024-02-27T00:35:00.681Z,100125.44
2024-02-27T00:38:06.812Z,100128.44
2024-02-27T00:41:12.144Z,100138.91
2024-02-27T00:44:15.879Z,100134.66
2024-02-27T00:47:21.654Z,100134.94
2024-02-27T00:50:26.166Z,100143.06
2024-02-27T00:53:32.706Z,100137.41
2024-02-27T00:56:38.158Z,100137.16
2024-02-27T00:59:44.800Z,100122.50
2024-02-27T01:02:49.054Z,100143.69
2024-02-27T01:05:53.706Z,100134.50
2024-02-27T01:08:56.442Z,100138.94
2024-02-27T01:12:13.865Z,100141.47
2024-02-27T01:15:19.516Z,100138.00
2024-02-27T01:18:22.102Z,100135.06
2024-02-27T01:21:28.000Z,100132.06
2024-02-27T01:24:31.364Z,100134.47
2024-02-27T01:27:35.014Z,100131.19
2024-02-27T01:30:41.268Z,100134.47
2024-02-27T01:33:49.648Z,100140.94
2024-02-27T01:36:59.339Z,100140.13
2024-02-27T01:40:10.838Z,100136.00
2024-02-27T01:43:34.428Z,100133.25
2024-02-27T01:46:38.665Z,100140.34
2024-02-27T01:49:46.085Z,100136.38
2024-02-27T01:52:55.661Z,100145.50
2024-02-27T01:59:26.920Z,100145.63
2024-02-27T02:02:36.853Z,100155.91
2024-02-27T02:05:41.772Z,100159.16
2024-02-27T02:08:58.574Z,100152.25
2024-02-27T02:12:02.044Z,100154.34
2024-02-27T02:15:05.442Z,100148.91
2024-02-27T02:18:08.465Z,100146.69
2024-02-27T02:21:13.362Z,100148.53
2024-02-27T02:24:18.135Z,100155.00
2024-02-27T02:27:20.838Z,100151.94
2024-02-27T02:30:24.332Z,100157.53
2024-02-27T02:33:29.851Z,100162.97
2024-02-27T02:36:33.873Z,100158.38
2024-02-27T02:39:37.500Z,100164.50
2024-02-27T02:42:40.410Z,100163.66
2024-02-27T02:45:44.472Z,100153.50
2024-02-27T02:48:47.022Z,100160.25
2024-02-27T02:51:49.458Z,100154.72
2024-02-27T02:54:51.791Z,100163.06
2024-02-27T02:57:54.178Z,100165.59
2024-02-27T03:00:57.860Z,100155.97
2024-02-27T03:04:00.320Z,100169.69
2024-02-27T03:07:04.558Z,100175.59
2024-02-27T03:10:07.935Z,100170.63
2024-02-27T03:13:12.215Z,100179.81
2024-02-27T03:16:22.841Z,100189.34
2024-02-27T03:19:29.348Z,100189.09
2024-02-27T03:22:36.427Z,100193.06
2024-02-27T03:25:45.165Z,100197.53
2024-02-27T03:28:48.590Z,100201.59
2024-02-27T03:35:13.496Z,100202.47
2024-02-27T03:38:20.204Z,100200.59
2024-02-27T03:41:38.592Z,100202.84
2024-02-27T03:44:48.724Z,100202.22
2024-02-27T03:47:55.762Z,100196.13
2024-02-27T03:50:59.411Z,100193.66
2024-02-27T03:54:02.279Z,100205.50
2024-02-27T03:57:06.228Z,100203.22
2024-02-27T04:00:13.069Z,100193.63
2024-02-27T04:03:19.113Z,100202.50
2024-02-27T04:06:30.935Z,100187.34
2024-02-27T04:09:34.914Z,100204.31
2024-02-27T04:12:37.996Z,100200.75
2024-02-27T04:15:43.963Z,100197.44
2024-02-27T04:18:51.442Z,100141.56
2024-02-27T04:21:53.979Z,100199.47
2024-02-27T04:25:04.455Z,100189.91
2024-02-27T04:28:10.323Z,100191.53
2024-02-27T04:31:16.979Z,100193.19
2024-02-27T04:34:27.856Z,100176.03
2024-02-27T04:37:38.076Z,100185.22
2024-02-27T04:40:45.027Z,100181.38
2024-02-27T04:43:51.089Z,100188.06
2024-02-27T04:46:56.575Z,100185.44
2024-02-27T04:50:00.401Z,100197.41
2024-02-27T04:53:03.415Z,100193.66
2024-02-27T04:56:11.727Z,100202.59
2024-02-27T04:59:23.584Z,100205.84
2024-02-27T05:02:33.005Z,100218.97
2024-02-27T05:05:41.085Z,100212.72
2024-02-27T05:08:49.960Z,100197.25
2024-02-27T05:11:57.127Z,100192.19
2024-02-27T05:15:06.615Z,100215.84
2024-02-27T05:18:10.385Z,100208.56
2024-02-27T05:21:17.516Z,100215.28
2024-02-27T05:24:24.547Z,100202.84
2024-02-27T05:27:27.727Z,100206.13
2024-02-27T05:30:32.435Z,100216.44
2024-02-27T05:33:34.913Z,100219.22
2024-02-27T05:36:39.375Z,100217.09
2024-02-27T05:39:42.975Z,100228.94
2024-02-27T05:42:48.080Z,100232.41
2024-02-27T05:45:50.453Z,100232.66
2024-02-27T05:48:57.569Z,100229.22
2024-02-27T05:52:02.173Z,100218.06
2024-02-27T05:55:06.850Z,100230.78
2024-02-27T05:58:15.554Z,100224.47
2024-02-27T06:01:24.345Z,100225.69
2024-02-27T06:04:30.411Z,100232.31
2024-02-27T06:07:35.119Z,100240.03
2024-02-27T06:14:04.581Z,100263.78
2024-02-27T06:17:12.456Z,100243.88
2024-02-27T06:20:35.514Z,100253.59
2024-02-27T06:23:39.060Z,100259.44
2024-02-27T06:30:07.209Z,100245.06
2024-02-27T06:33:15.929Z,100235.25
2024-02-27T06:36:26.376Z,100239.03
2024-02-27T06:39:31.674Z,100237.38
2024-02-27T06:42:39.203Z,100236.41
2024-02-27T06:45:44.761Z,100240.41
2024-02-27T06:48:50.288Z,100237.44
2024-02-27T06:51:58.636Z,100237.00
2024-02-27T06:55:04.767Z,100221.56
2024-02-27T06:58:08.874Z,100231.66
2024-02-27T07:01:15.826Z,100236.78
2024-02-27T07:04:23.606Z,100240.84
2024-02-27T07:07:34.350Z,100225.91
2024-02-27T07:11:12.199Z,100240.50
2024-02-27T07:14:20.868Z,100257.84
2024-02-27T07:17:28.295Z,100273.72
2024-02-27T07:20:32.929Z,100285.94
2024-02-27T07:23:35.771Z,100296.00
2024-02-27T07:26:39.292Z,100284.53
2024-02-27T07:29:42.011Z,100283.78
2024-02-27T07:32:48.213Z,100291.50
2024-02-27T07:35:54.766Z,100293.13
2024-02-27T07:39:07.946Z,100293.84
2024-02-27T07:42:10.563Z,100285.41
2024-02-27T07:45:20.952Z,100296.34
2024-02-27T07:48:25.805Z,100297.00
2024-02-27T07:51:30.529Z,100300.94
2024-02-27T07:54:36.816Z,100304.50
2024-02-27T07:57:42.146Z,100303.81
2024-02-27T08:00:50.064Z,100302.31
2024-02-27T08:03:56.861Z,100303.09
2024-02-27T08:07:05.593Z,100308.31
2024-02-27T08:10:13.068Z,100303.63
2024-02-27T08:13:23.970Z,100303.19
2024-02-27T08:16:29.105Z,100310.09
2024-02-27T08:19:37.190Z,100311.50
2024-02-27T08:22:42.102Z,100318.97
2024-02-27T08:25:48.683Z,100316.09
2024-02-27T08:28:56.860Z,100307.34
2024-02-27T08:32:04.152Z,100310.56
2024-02-27T08:35:07.584Z,100319.88
2024-02-27T08:38:14.384Z,100316.69
2024-02-27T08:41:24.532Z,100315.56
2024-02-27T08:44:28.297Z,100329.16
2024-02-27T08:47:41.606Z,100336.59
2024-02-27T08:50:49.845Z,100335.31
2024-02-27T08:53:55.488Z,100341.88
2024-02-27T08:56:59.145Z,100333.19
2024-02-27T09:00:07.824Z,100332.81
2024-02-27T09:03:15.407Z,100329.97
2024-02-27T09:06:24.247Z,100333.19
2024-02-27T09:09:36.643Z,100334.16
2024-02-27T09:12:46.234Z,100333.53
2024-02-27T09:15:50.608Z,100331.69
2024-02-27T09:18:56.722Z,100335.31
2024-02-27T09:22:03.051Z,100342.97
2024-02-27T09:25:15.283Z,100345.97
2024-02-27T09:28:32.758Z,100340.56
2024-02-27T09:31:38.283Z,100350.09
2024-02-27T09:34:46.131Z,100352.53
2024-02-27T09:37:49.925Z,100350.91
2024-02-27T09:40:58.590Z,100341.69
2024-02-27T09:44:03.501Z,100354.19
2024-02-27T09:47:11.082Z,100351.16
2024-02-27T09:50:20.386Z,100343.47
2024-02-27T09:53:27.609Z,100352.69
2024-02-27T09:56:32.766Z,100360.63
2024-02-27T09:59:43.208Z,100365.91
2024-02-27T10:06:15.551Z,100362.78
2024-02-27T10:09:33.823Z,100374.13
2024-02-27T10:12:41.884Z,100369.34
2024-02-27T10:15:48.240Z,100378.88
2024-02-27T10:18:51.931Z,100375.06
2024-02-27T10:21:56.011Z,100376.09
2024-02-27T10:25:08.425Z,100375.00
2024-02-27T10:28:16.321Z,100387.59
2024-02-27T10:31:29.657Z,100378.97
2024-02-27T10:34:35.112Z,100382.22
2024-02-27T10:37:47.975Z,100386.28
2024-02-27T10:40:57.028Z,100385.72
2024-02-27T10:44:07.553Z,100389.25
2024-02-27T10:47:20.489Z,100383.31
2024-02-27T10:50:25.548Z,100390.31
2024-02-27T10:53:36.178Z,100395.25
2024-02-27T10:56:43.592Z,100402.41
2024-02-27T10:59:54.987Z,100402.97
2024-02-27T11:03:01.806Z,100395.06
2024-02-27T11:06:15.746Z,100403.47
2024-02-27T11:09:44.530Z,100402.75
2024-02-27T11:12:50.846Z,100398.63
2024-02-27T11:16:00.868Z,100399.78
2024-02-27T11:19:18.058Z,100395.38
2024-02-27T11:22:24.636Z,100400.28
2024-02-27T11:25:32.725Z,100411.19
2024-02-27T11:28:42.297Z,100415.25
2024-02-27T11:31:46.758Z,100421.75
2024-02-27T11:34:59.195Z,100419.25
2024-02-27T11:38:11.271Z,100416.28
2024-02-27T11:41:37.725Z,100424.38
2024-02-27T11:45:06.714Z,100418.75
2024-02-27T11:48:21.008Z,100413.97
2024-02-27T11:51:27.527Z,100408.69
2024-02-27T11:54:38.264Z,100404.56
2024-02-27T11:57:42.939Z,100426.94
2024-02-27T12:00:52.003Z,100422.63
2024-02-27T12:04:00.884Z,100416.44
2024-02-27T12:07:04.095Z,100427.88
2024-02-27T12:10:27.515Z,100424.44
2024-02-27T12:13:30.199Z,100419.81
2024-02-27T12:16:32.868Z,100418.72
2024-02-27T12:19:36.834Z,100418.22
2024-02-27T12:22:52.721Z,100416.00
2024-02-27T12:25:55.369Z,100419.22
2024-02-27T12:29:02.868Z,100414.34
2024-02-27T12:32:10.432Z,100418.69
2024-02-27T12:35:21.287Z,100415.34
2024-02-27T12:38:42.030Z,100411.28
2024-02-27T12:41:57.746Z,100422.44
2024-02-27T12:45:00.926Z,100425.56
2024-02-27T12:48:08.771Z,100428.78
2024-02-27T12:51:17.996Z,100426.56
2024-02-27T12:54:29.920Z,100439.78
2024-02-27T12:57:36.586Z,100427.63
2024-02-27T13:00:48.330Z,100419.13
2024-02-27T13:03:55.091Z,100425.78
2024-02-27T13:07:00.321Z,100428.50
2024-02-27T13:10:03.409Z,100422.59
2024-02-27T13:13:10.861Z,100429.31
2024-02-27T13:16:15.415Z,100436.94
2024-02-27T13:19:22.556Z,100441.63
2024-02-27T13:22:28.623Z,100445.81
2024-02-27T13:25:44.116Z,100445.56
2024-02-27T13:28:52.073Z,100444.19
2024-02-27T13:32:01.589Z,100454.44
2024-02-27T13:35:07.209Z,100456.19
2024-02-27T13:38:18.621Z,100452.94
2024-02-27T13:41:23.995Z,100455.75
2024-02-27T13:44:27.038Z,100447.69
2024-02-27T13:47:33.059Z,100446.88
2024-02-27T13:50:43.876Z,100443.94
2024-02-27T13:53:48.973Z,100452.28
2024-02-27T13:56:59.646Z,100445.72
2024-02-27T14:00:14.002Z,100442.59
2024-02-27T14:03:22.439Z,100437.72
2024-02-27T14:09:57.625Z,100447.69
2024-02-27T14:13:07.132Z,100458.28
2024-02-27T14:16:16.386Z,100461.50
2024-02-27T14:19:34.828Z,100455.94
2024-02-27T14:22:42.495Z,100462.53
2024-02-27T14:25:57.166Z,100465.47
2024-02-27T14:32:28.430Z,100436.69
2024-02-27T14:35:36.463Z,100469.72
2024-02-27T14:42:08.849Z,100480.88
2024-02-27T14:45:20.289Z,100478.94
2024-02-27T14:48:29.859Z,100476.13
2024-02-27T14:51:36.129Z,100478.25
2024-02-27T14:54:43.111Z,100477.22
2024-02-27T14:57:49.397Z,100474.09
2024-02-27T15:00:54.622Z,100475.94
2024-02-27T15:04:09.090Z,100486.63
2024-02-27T15:07:16.286Z,100487.09
2024-02-27T15:10:20.484Z,100489.81
2024-02-27T15:13:37.238Z,100497.06
2024-02-27T15:16:46.218Z,100495.81
2024-02-27T15:20:02.272Z,100506.66
2024-02-27T15:23:07.767Z,100507.53
2024-02-27T15:26:17.037Z,100495.00
2024-02-27T15:29:25.380Z,100491.66
2024-02-27T15:32:32.962Z,100492.91
2024-02-27T15:35:49.756Z,100491.94
2024-02-27T15:39:09.679Z,100496.69
2024-02-27T15:45:48.762Z,100514.88
2024-02-27T15:48:55.207Z,100516.91
2024-02-27T15:55:33.042Z,100510.09
2024-02-27T16:02:00.800Z,100510.09
2024-02-27T16:05:10.936Z,100512.84
2024-02-27T16:08:18.143Z,100518.38
2024-02-27T16:11:22.572Z,100517.03
2024-02-27T16:14:25.533Z,100532.97
2024-02-27T16:17:40.475Z,100532.56
2024-02-27T16:20:46.062Z,100534.19
2024-02-27T16:23:56.225Z,100540.50
2024-02-27T16:27:08.653Z,100551.81
2024-02-27T16:30:16.731Z,100551.78
2024-02-27T16:33:22.253Z,100545.63
2024-02-27T16:36:27.265Z,100544.78
2024-02-27T16:39:35.145Z,100544.59
2024-02-27T16:42:44.385Z,100551.44
2024-02-27T16:45:51.302Z,100558.75
2024-02-27T16:49:05.366Z,100567.25
2024-02-27T16:52:07.830Z,100571.44
2024-02-27T16:55:21.475Z,100580.06
2024-02-27T16:58:29.249Z,100581.72
2024-02-27T17:01:33.860Z,100577.13
2024-02-27T17:04:39.727Z,100578.34
2024-02-27T17:07:55.202Z,100591.75
2024-02-27T17:11:01.154Z,100589.72
2024-02-27T17:14:04.076Z,100593.38
2024-02-27T17:17:10.950Z,100588.44
2024-02-27T17:20:21.101Z,100594.22
2024-02-27T17:23:27.099Z,100598.81
2024-02-27T17:29:55.925Z,100600.50
2024-02-27T17:33:01.433Z,100610.94
2024-02-27T17:36:07.046Z,100596.47
2024-02-27T17:39:11.988Z,100591.41
2024-02-27T17:42:20.436Z,100594.34
2024-02-27T17:45:24.414Z,100581.19
2024-02-27T17:48:30.018Z,100594.22
2024-02-27T17:51:38.162Z,100594.22
2024-02-27T17:54:45.264Z,100596.13
2024-02-27T17:57:49.043Z,100586.97
2024-02-27T18:00:54.752Z,100587.81
2024-02-27T18:04:02.679Z,100586.41
2024-02-27T18:07:08.177Z,100590.97
2024-02-27T18:10:26.205Z,100591.69
2024-02-27T18:13:32.403Z,100591.69
2024-02-27T18:16:41.981Z,100600.00
2024-02-27T18:19:51.682Z,100592.50
2024-02-27T18:22:57.413Z,100587.59
2024-02-27T18:26:02.416Z,100584.16
2024-02-27T18:29:07.645Z,100587.22
2024-02-27T18:32:14.590Z,100586.19
2024-02-27T18:35:20.557Z,100583.00
2024-02-27T18:38:28.974Z,100582.06
2024-02-27T18:41:44.190Z,100584.06
2024-02-27T18:44:53.246Z,100588.41
2024-02-27T18:47:56.921Z,100595.69
2024-02-27T18:51:03.335Z,100596.38
2024-02-27T18:54:10.559Z,100597.44
2024-02-27T18:57:17.879Z,100603.31
2024-02-27T19:00:21.946Z,100612.69
2024-02-27T19:03:25.408Z,100615.41
2024-02-27T19:06:28.558Z,100608.59
2024-02-27T19:09:33.561Z,100623.28
2024-02-27T19:12:39.279Z,100618.69
2024-02-27T19:15:46.277Z,100618.59
2024-02-27T19:18:54.323Z,100626.00
2024-02-27T19:21:59.090Z,100622.97
2024-02-27T19:28:28.704Z,100626.00
2024-02-27T19:31:35.212Z,100622.97
2024-02-27T19:34:37.563Z,100625.28
2024-02-27T19:37:40.938Z,100618.94
2024-02-27T19:40:56.810Z,100621.19
2024-02-27T19:44:01.926Z,100625.16
2024-02-27T19:50:22.164Z,100638.97
2024-02-27T19:53:25.512Z,100639.03
2024-02-27T19:56:27.958Z,100638.84
2024-02-27T19:59:31.333Z,100643.84
2024-02-27T20:02:46.781Z,100649.19
2024-02-27T20:05:54.719Z,100640.94
2024-02-27T20:09:07.475Z,100631.66
2024-02-27T20:12:10.616Z,100637.06
2024-02-27T20:15:17.802Z,100631.91
2024-02-27T20:18:35.138Z,100634.72
2024-02-27T20:21:40.240Z,100627.31
2024-02-27T20:24:51.311Z,100636.72
2024-02-27T20:27:58.651Z,100644.91
2024-02-27T20:31:14.618Z,100640.13
2024-02-27T20:34:26.580Z,100646.09
2024-02-27T20:37:33.591Z,100641.66
2024-02-27T20:40:38.068Z,100645.28
2024-02-27T20:43:48.171Z,100642.00
2024-02-27T20:46:53.276Z,100643.56
2024-02-27T20:49:56.734Z,100643.03
2024-02-27T20:53:00.823Z,100634.22
2024-02-27T20:59:27.735Z,100616.56
2024-02-27T21:02:32.907Z,100626.28
2024-02-27T21:05:38.126Z,100640.31
2024-02-27T21:08:52.121Z,100643.25
2024-02-27T21:15:20.382Z,100655.59
2024-02-27T21:18:30.163Z,100650.22
2024-02-27T21:21:36.407Z,100661.50
2024-02-27T21:24:46.956Z,100654.22
2024-02-27T21:27:59.318Z,100664.44
2024-02-27T21:31:12.021Z,100662.94
2024-02-27T21:34:19.976Z,100668.34
2024-02-27T21:37:37.995Z,100667.63
2024-02-27T21:40:42.965Z,100670.69
2024-02-27T21:43:50.076Z,100670.69
2024-02-27T21:46:56.753Z,100673.75
2024-02-27T21:49:59.978Z,100666.09
2024-02-27T21:53:06.568Z,100663.75
2024-02-27T21:56:08.960Z,100679.25
2024-02-27T21:59:16.431Z,100669.59
2024-02-27T22:02:25.559Z,100673.38
2024-02-27T22:05:47.578Z,100672.44
2024-02-27T22:09:01.067Z,100653.28
2024-02-27T22:12:06.853Z,100680.66
2024-02-27T22:15:13.815Z,100683.38
2024-02-27T22:18:25.720Z,100678.53
2024-02-27T22:21:34.332Z,100680.88
2024-02-27T22:24:37.077Z,100684.28
2024-02-27T22:27:41.434Z,100680.16
2024-02-27T22:30:46.318Z,100676.19
2024-02-27T22:33:50.256Z,100683.22
2024-02-27T22:36:53.233Z,100679.00
2024-02-27T22:39:56.148Z,100680.78
2024-02-27T22:42:58.975Z,100691.19
2024-02-27T22:46:01.423Z,100679.25
2024-02-27T22:49:06.595Z,100682.06
2024-02-27T22:52:12.652Z,100681.59
2024-02-27T22:55:19.638Z,100684.41
2024-02-27T22:58:30.258Z,100689.09
2024-02-27T23:01:36.690Z,100685.19
2024-02-27T23:04:51.926Z,100687.81
2024-02-27T23:08:07.260Z,100678.84
2024-02-27T23:11:17.146Z,100690.03
2024-02-27T23:17:38.375Z,100686.38
2024-02-27T23:20:52.066Z,100681.19
2024-02-27T23:24:01.692Z,100679.44
2024-02-27T23:27:14.174Z,100674.09
2024-02-27T23:30:25.691Z,100679.44
2024-02-27T23:33:32.800Z,100685.53
2024-02-27T23:36:37.992Z,100662.94
2024-02-27T23:39:58.257Z,100670.84
2024-02-27T23:43:11.583Z,100680.78
2024-02-27T23:46:17.103Z,100679.34
2024-02-27T23:49:49.222Z,100675.44
2024-02-27T23:52:53.971Z,100686.84
2024-02-27T23:55:58.205Z,100680.97
2024-02-27T23:59:02.379Z,100691.13
